Time;durP1;ratioP1;P1;durP2;ratioP2;P2;SDS_P1;SDS_P2;PMS_P1;PMS_P2;Temp;Humidity;BMP_temperature;BMP_pressure;BME280_temperature;BME280_humidity;BME280_pressure;Samples;Min_cycle;Max_cycle;Signal;HPM_P1;HPM_P2
2022/11/24 00:01:29;;;;;;;127.33;55.50;;;;;;;0.95;90.89;99832.42;1736090;82;22019;-75
2022/11/24 00:04:03;;;;;;;123.03;55.07;;;;;;;0.96;91.06;99834.98;1715409;81;21000;-75
2022/11/24 00:06:35;;;;;;;111.70;54.53;;;;;;;1.00;91.12;99844.83;1736395;82;21070;-75
2022/11/24 00:09:04;;;;;;;124.27;55.53;;;;;;;1.03;91.29;99843.55;1736398;82;20995;-75
2022/11/24 00:11:34;;;;;;;117.07;53.73;;;;;;;1.09;91.49;99851.23;1736973;81;21014;-75
2022/11/24 00:14:03;;;;;;;120.17;56.00;;;;;;;1.13;91.49;99846.46;1736506;82;21047;-75
2022/11/24 00:16:34;;;;;;;114.60;53.20;;;;;;;1.14;91.23;99848.60;1736659;82;21023;-75
2022/11/24 00:19:10;;;;;;;114.23;53.17;;;;;;;1.11;91.23;99852.95;1689667;82;21038;-75
2022/11/24 00:21:37;;;;;;;111.53;52.17;;;;;;;1.06;90.77;99856.42;1738853;82;20983;-75
2022/11/24 00:24:05;;;;;;;113.80;51.83;;;;;;;0.99;90.67;99861.19;1736613;82;21508;-75
2022/11/24 00:26:36;;;;;;;113.60;50.93;;;;;;;1.00;91.05;99862.89;1709300;84;21564;-75
2022/11/24 00:29:06;;;;;;;110.20;50.23;;;;;;;1.03;91.31;99868.92;1738520;82;21010;-75
2022/11/24 00:31:36;;;;;;;112.88;53.35;;;;;;;1.07;91.24;99872.33;1736903;82;21000;-74
2022/11/24 00:34:08;;;;;;;124.15;55.05;;;;;;;1.08;91.17;99872.73;1709334;82;21051;-74
2022/11/24 00:36:36;;;;;;;126.83;57.80;;;;;;;1.06;90.97;99872.77;1738972;82;21007;-76
2022/11/24 00:39:13;;;;;;;124.27;55.33;;;;;;;1.06;90.95;99865.46;1736515;82;21124;-74
2022/11/24 00:41:42;;;;;;;112.07;54.07;;;;;;;0.98;90.39;99862.92;1709051;82;21054;-74
2022/11/24 00:44:09;;;;;;;113.87;54.30;;;;;;;0.92;90.64;99877.16;1738810;82;21026;-74
2022/11/24 00:46:37;;;;;;;98.50;50.30;;;;;;;0.94;90.94;99879.72;1717014;82;21555;-74
2022/11/24 00:49:04;;;;;;;94.80;49.67;;;;;;;0.94;90.87;99876.70;1709349;82;20986;-74
2022/11/24 00:51:31;;;;;;;95.90;49.40;;;;;;;0.92;90.86;99878.45;1738649;82;22131;-74
2022/11/24 00:54:00;;;;;;;98.80;49.23;;;;;;;0.93;91.14;99884.02;1736689;82;20999;-74
2022/11/24 00:56:29;;;;;;;93.23;47.40;;;;;;;0.93;91.04;99871.56;1715643;81;21023;-74
2022/11/24 00:58:56;;;;;;;87.13;45.80;;;;;;;0.90;91.01;99875.02;1741757;82;20982;-74
2022/11/24 01:01:27;;;;;;;86.00;48.30;;;;;;;0.93;91.26;99871.56;1741673;82;21049;-75
2022/11/24 01:03:55;;;;;;;104.00;54.03;;;;;;;0.95;91.22;99869.84;1741705;82;21268;-74
2022/11/24 01:06:26;;;;;;;100.30;50.13;;;;;;;0.97;91.17;99868.08;1741591;82;21033;-74
2022/11/24 01:08:55;;;;;;;89.43;46.40;;;;;;;0.90;90.78;99867.28;1741985;82;21042;-74
2022/11/24 01:12:00;;;;;;;87.50;46.33;;;;;;;0.89;90.83;99881.91;1741759;82;21522;-74
2022/11/24 01:13:59;;;;;;;84.97;44.30;;;;;;;0.87;90.84;99879.76;1738731;82;21081;-74
2022/11/24 01:16:31;;;;;;;83.27;44.87;;;;;;;0.87;90.74;99873.75;1741801;82;21488;-74
2022/11/24 01:18:59;;;;;;;83.07;44.83;;;;;;;0.82;90.39;99872.47;1749539;80;20953;-74
2022/11/24 01:21:26;;;;;;;82.00;45.33;;;;;;;0.79;90.43;99880.67;1729141;81;21013;-74
2022/11/24 01:23:53;;;;;;;86.40;45.03;;;;;;;0.77;90.40;99884.98;1728922;81;21040;-74
2022/11/24 01:26:22;;;;;;;90.87;43.50;;;;;;;0.75;90.68;99882.83;1745026;80;21022;-74
2022/11/24 01:28:55;;;;;;;75.03;41.90;;;;;;;0.72;90.62;99878.58;1733575;80;21113;-74
2022/11/24 01:31:23;;;;;;;82.13;43.07;;;;;;;0.72;90.73;99882.85;1743969;81;21026;-74
2022/11/24 01:33:51;;;;;;;71.77;39.87;;;;;;;0.71;90.54;99888.45;1758999;81;21613;-74
2022/11/24 01:36:18;;;;;;;79.67;43.37;;;;;;;0.67;90.20;99888.05;1759101;80;21489;-74
2022/11/24 01:38:46;;;;;;;81.90;41.93;;;;;;;0.58;89.97;99877.76;1737816;80;21482;-74
2022/11/24 01:41:17;;;;;;;89.10;43.73;;;;;;;0.58;90.46;99881.22;1748878;81;21583;-74
2022/11/24 01:43:45;;;;;;;94.07;46.73;;;;;;;0.59;90.46;99883.36;1719345;83;21039;-74
2022/11/24 01:46:32;;;;;;;103.37;49.57;;;;;;;0.57;90.28;99885.08;1737970;81;20943;-74
2022/11/24 01:49:19;;;;;;;99.93;47.10;;;;;;;0.49;89.93;99877.81;1759187;81;21007;-74
2022/11/24 01:51:54;;;;;;;102.20;50.30;;;;;;;0.42;90.07;99880.42;1759246;81;21299;-74
2022/11/24 01:54:30;;;;;;;103.73;51.73;;;;;;;0.37;90.00;99882.59;1757622;81;21895;-75
2022/11/24 01:57:15;;;;;;;91.53;46.70;;;;;;;0.31;89.94;99877.03;1761277;81;21018;-74
2022/11/24 01:59:45;;;;;;;71.90;41.03;;;;;;;0.24;89.97;99877.91;1763840;81;21089;-74
2022/11/24 02:02:13;;;;;;;78.87;42.10;;;;;;;0.24;90.42;99886.08;1764366;81;21555;-75
2022/11/24 02:04:42;;;;;;;74.67;40.73;;;;;;;0.21;90.59;99883.92;1764497;81;21082;-75
2022/11/24 02:07:11;;;;;;;99.00;48.27;;;;;;;0.24;90.92;99888.66;1764362;81;21190;-75
2022/11/24 02:09:55;;;;;;;82.37;45.37;;;;;;;0.25;90.85;99886.48;1764306;81;21070;-75
2022/11/24 02:12:25;;;;;;;86.13;44.40;;;;;;;0.25;90.93;99882.22;1728489;82;21038;-75
2022/11/24 02:14:55;;;;;;;87.75;47.13;;;;;;;0.26;90.90;99884.36;1764428;81;21074;-75
2022/11/24 02:17:22;;;;;;;85.20;43.87;;;;;;;0.26;90.82;99884.36;1723130;81;20996;-75
2022/11/24 02:20:03;;;;;;;81.97;43.70;;;;;;;0.22;90.61;99884.78;1746824;82;21136;-75
2022/11/24 02:22:52;;;;;;;84.00;44.63;;;;;;;0.18;90.50;99891.67;1746983;82;20933;-75
2022/11/24 02:25:48;;;;;;;81.07;42.70;;;;;;;0.13;90.18;99892.11;1740039;79;21020;-75
2022/11/24 02:28:21;;;;;;;76.67;41.30;;;;;;;0.07;90.15;99893.86;1752942;81;21026;-75
2022/11/24 02:30:49;;;;;;;72.40;38.87;;;;;;;0.02;90.24;99895.58;1735265;79;21052;-75
2022/11/24 02:33:16;;;;;;;77.70;41.63;;;;;;;-0.02;90.42;99900.75;1734347;79;21091;-75
2022/11/24 02:35:43;;;;;;;75.80;40.37;;;;;;;0.00;90.88;99904.63;1760875;80;21261;-75
2022/11/24 02:38:12;;;;;;;75.37;40.00;;;;;;;0.00;90.54;99903.34;1755984;81;21032;-75
2022/11/24 02:40:43;;;;;;;72.70;40.13;;;;;;;-0.06;90.36;99905.89;1748665;81;21021;-75
2022/11/24 02:43:15;;;;;;;72.50;39.37;;;;;;;-0.01;91.17;99902.45;1764590;81;21030;-75
2022/11/24 02:45:42;;;;;;;72.67;39.70;;;;;;;0.07;91.22;99900.30;1764353;81;21119;-75
2022/11/24 02:48:09;;;;;;;72.87;39.07;;;;;;;0.10;91.13;99901.14;1764625;81;21038;-75
2022/11/24 02:50:37;;;;;;;69.80;38.60;;;;;;;0.15;91.30;99900.70;1740828;81;21018;-75
2022/11/24 02:53:04;;;;;;;68.27;37.47;;;;;;;0.15;90.95;99908.44;1762067;81;21564;-74
2022/11/24 02:55:31;;;;;;;71.17;37.53;;;;;;;0.14;90.73;99909.71;1754738;81;21527;-75
2022/11/24 02:57:59;;;;;;;73.77;40.97;;;;;;;0.18;91.04;99911.44;1731875;81;21114;-75
2022/11/24 03:00:25;;;;;;;74.23;39.00;;;;;;;0.24;91.32;99906.69;1732208;82;21470;-75
2022/11/24 03:02:52;;;;;;;72.83;40.33;;;;;;;0.29;91.33;99908.39;1732512;82;20984;-75
2022/11/24 03:05:20;;;;;;;75.03;41.00;;;;;;;0.34;91.44;99904.09;1715834;82;21026;-77
2022/11/24 03:07:47;;;;;;;69.97;38.73;;;;;;;0.36;91.04;99899.79;1715688;82;21026;-75
2022/11/24 03:10:14;;;;;;;77.70;40.13;;;;;;;0.35;91.05;99894.63;1724780;82;21092;-75
2022/11/24 03:12:42;;;;;;;75.40;39.07;;;;;;;0.40;91.08;99899.34;1718112;82;21031;-77
2022/11/24 03:15:10;;;;;;;73.43;39.80;;;;;;;0.39;90.96;99893.33;1732151;82;21007;-78
2022/11/24 03:17:37;;;;;;;67.97;37.10;;;;;;;0.40;90.98;99896.33;1732491;82;21074;-75
2022/11/24 03:20:05;;;;;;;79.37;40.60;;;;;;;0.45;91.06;99902.77;1732171;82;21024;-74
2022/11/24 03:22:32;;;;;;;74.63;39.90;;;;;;;0.44;90.89;99899.73;1726186;82;21128;-74
2022/11/24 03:24:59;;;;;;;65.73;37.20;;;;;;;0.41;90.44;99895.88;1715419;82;21007;-75
2022/11/24 03:27:26;;;;;;;68.60;38.87;;;;;;;0.38;90.57;99894.17;1706545;82;21010;-74
2022/11/24 03:29:53;;;;;;;77.33;42.07;;;;;;;0.39;90.67;99896.34;1725285;82;20981;-75
2022/11/24 03:32:20;;;;;;;73.67;40.43;;;;;;;0.43;91.08;99898.89;1732090;82;21545;-75
2022/11/24 03:34:47;;;;;;;78.53;41.10;;;;;;;0.49;91.11;99901.87;1732200;82;21471;-75
2022/11/24 03:37:14;;;;;;;75.53;38.77;;;;;;;0.49;90.85;99901.87;1729047;82;21004;-75
2022/11/24 03:39:41;;;;;;;72.57;39.30;;;;;;;0.49;90.82;99896.72;1715216;82;20996;-75
2022/11/24 03:42:08;;;;;;;70.10;39.10;;;;;;;0.47;90.46;99900.16;1731799;82;21027;-75
2022/11/24 03:44:36;;;;;;;75.97;40.07;;;;;;;0.43;90.46;99900.17;1721072;82;21070;-75
2022/11/24 03:47:03;;;;;;;79.73;40.30;;;;;;;0.44;90.64;99896.75;1732232;82;21963;-75
2022/11/24 03:49:30;;;;;;;73.00;40.60;;;;;;;0.46;90.59;99898.45;1730665;82;20996;-75
2022/11/24 03:51:57;;;;;;;79.53;43.17;;;;;;;0.50;90.95;99900.14;1724942;82;21020;-75
2022/11/24 03:54:24;;;;;;;74.40;40.80;;;;;;;0.52;90.82;99901.86;1710706;82;21026;-75
2022/11/24 03:56:51;;;;;;;71.33;39.70;;;;;;;0.49;90.90;99900.58;1724980;83;21094;-75
2022/11/24 03:59:18;;;;;;;79.67;40.50;;;;;;;0.53;91.11;99904.88;1728844;82;21078;-74
2022/11/24 04:01:45;;;;;;;71.67;39.53;;;;;;;0.55;91.00;99903.13;1725965;82;21030;-75
2022/11/24 04:04:13;;;;;;;71.93;39.60;;;;;;;0.57;91.24;99909.58;1730917;82;20912;-75
2022/11/24 04:06:40;;;;;;;112.43;56.57;;;;;;;0.62;91.40;99914.30;1721897;82;21021;-75
2022/11/24 04:09:07;;;;;;;86.17;44.00;;;;;;;0.65;91.30;99914.28;1730438;82;21090;-75
2022/11/24 04:14:20;;;;;;;72.43;41.17;;;;;;;0.65;90.95;99917.70;1732108;82;21023;-75
2022/11/24 04:16:47;;;;;;;77.20;39.60;;;;;;;0.63;90.89;99925.87;1705580;82;21033;-74
2022/11/24 04:19:14;;;;;;;74.63;38.97;;;;;;;0.65;91.05;99919.00;1714453;82;21326;-75
2022/11/24 04:21:41;;;;;;;71.27;38.10;;;;;;;0.70;91.15;99916.84;1725529;82;21042;-75
2022/11/24 04:24:10;;;;;;;75.57;38.57;;;;;;;0.65;90.39;99920.72;1725351;82;21128;-75
2022/11/24 04:26:37;;;;;;;77.13;40.17;;;;;;;0.61;90.68;99929.32;1732258;82;21100;-75
2022/11/24 04:29:04;;;;;;;77.30;39.47;;;;;;;0.68;91.20;99928.88;1721355;82;21002;-75
2022/11/24 04:31:31;;;;;;;73.63;37.07;;;;;;;0.73;91.21;99926.70;1724263;82;21097;-76
2022/11/24 04:33:58;;;;;;;71.47;38.43;;;;;;;0.77;91.29;99929.68;1725633;82;21280;-75
2022/11/24 04:36:25;;;;;;;70.03;38.43;;;;;;;0.80;91.13;99930.11;1725605;82;21116;-75
2022/11/24 04:38:53;;;;;;;71.57;37.97;;;;;;;0.82;91.15;99936.12;1725291;82;21054;-75
2022/11/24 04:41:20;;;;;;;80.97;38.97;;;;;;;0.82;91.04;99935.69;1725410;82;21031;-75
2022/11/24 04:43:49;;;;;;;69.30;37.30;;;;;;;0.80;90.68;99939.13;1720259;82;21074;-75
2022/11/24 04:46:17;;;;;;;72.60;37.23;;;;;;;0.75;90.58;99948.20;1724973;82;22074;-75
2022/11/24 04:48:44;;;;;;;69.00;37.73;;;;;;;0.74;90.73;99943.89;1715822;82;21119;-75
2022/11/24 04:51:13;;;;;;;66.70;35.57;;;;;;;0.75;90.86;99949.90;1715882;82;21062;-75
2022/11/24 04:53:40;;;;;;;66.93;34.97;;;;;;;0.74;90.63;99949.05;1720201;82;21560;-75
2022/11/24 04:56:08;;;;;;;69.00;36.37;;;;;;;0.75;90.81;99953.77;1725180;82;20955;-75
2022/11/24 04:58:36;;;;;;;66.77;34.77;;;;;;;0.80;91.16;99946.44;1725511;82;21591;-75
2022/11/24 05:01:08;;;;;;;67.73;36.30;;;;;;;0.87;91.28;99940.83;1731845;82;21202;-75
2022/11/24 05:03:36;;;;;;;66.87;34.40;;;;;;;0.86;90.96;99950.30;1725257;82;21086;-75
2022/11/24 05:06:04;;;;;;;60.13;35.27;;;;;;;0.88;91.04;99952.86;1721792;82;21039;-75
2022/11/24 05:08:31;;;;;;;61.97;35.07;;;;;;;0.87;90.75;99955.87;1725361;82;21045;-75
2022/11/24 05:11:06;;;;;;;60.03;34.83;;;;;;;0.85;90.84;99957.59;1720066;82;21019;-75
2022/11/24 05:13:33;;;;;;;61.00;34.63;;;;;;;0.86;90.84;99957.19;1721362;82;21157;-75
2022/11/24 05:16:00;;;;;;;58.17;34.57;;;;;;;0.86;90.84;99970.09;1733221;82;21015;-75
2022/11/24 05:18:27;;;;;;;64.13;35.77;;;;;;;0.85;90.74;99976.95;1720095;82;21042;-75
2022/11/24 05:20:54;;;;;;;62.53;35.13;;;;;;;0.83;90.75;99976.52;1705205;82;21072;-77
2022/11/24 05:23:22;;;;;;;60.13;33.80;;;;;;;0.84;90.89;99982.98;1711024;82;21475;-75
2022/11/24 05:25:49;;;;;;;60.90;33.77;;;;;;;0.87;90.99;99975.23;1723262;82;21099;-75
2022/11/24 05:28:17;;;;;;;64.23;34.00;;;;;;;0.85;90.73;99978.23;1725408;82;20946;-75
2022/11/24 05:30:44;;;;;;;61.50;34.00;;;;;;;0.83;90.65;99982.97;1720255;82;21050;-74
2022/11/24 05:33:21;;;;;;;59.60;32.90;;;;;;;0.80;90.43;99991.58;1732139;82;21011;-75
2022/11/24 05:35:49;;;;;;;57.57;33.67;;;;;;;0.80;90.64;99993.31;1731618;82;21309;-75
2022/11/24 05:38:17;;;;;;;61.37;33.27;;;;;;;0.85;91.09;99996.73;1725793;82;21109;-78
2022/11/24 05:40:44;;;;;;;60.50;33.37;;;;;;;0.92;91.22;99995.01;1725203;82;21027;-75
2022/11/24 05:43:14;;;;;;;63.43;34.40;;;;;;;0.95;91.16;99993.70;1711336;82;21019;-74
2022/11/24 05:45:43;;;;;;;61.00;35.43;;;;;;;0.99;91.17;99999.26;1721492;82;21021;-76
2022/11/24 05:48:13;;;;;;;59.73;31.73;;;;;;;1.00;91.08;100001.84;1717978;82;21111;-78
2022/11/24 05:50:40;;;;;;;;;;;;;;;0.98;90.81;100004.86;1723880;82;21832;-76
2022/11/24 05:53:11;;;;;;;60.53;33.67;;;;;;;0.97;90.92;100010.89;1731313;82;20185;-76
2022/11/24 05:55:39;;;;;;;;;;;;;;;0.98;90.92;100012.59;1720631;82;20990;-75
2022/11/24 05:58:08;;;;;;;58.73;31.90;;;;;;;0.95;90.71;100015.20;1717965;82;20181;-75
2022/11/24 06:00:36;;;;;;;63.33;34.30;;;;;;;0.95;90.93;100023.37;1732105;82;20999;-75
2022/11/24 06:03:03;;;;;;;82.00;43.43;;;;;;;0.96;90.80;100027.66;1726390;82;21561;-74
2022/11/24 06:05:30;;;;;;;67.07;37.40;;;;;;;0.89;90.37;100034.14;1720164;82;21023;-74
2022/11/24 06:07:59;;;;;;;61.27;34.30;;;;;;;0.88;90.67;100038.86;1726640;82;21481;-74
2022/11/24 06:10:27;;;;;;;62.27;33.90;;;;;;;0.91;90.88;100039.28;1721673;81;21082;-74
2022/11/24 06:12:54;;;;;;;65.13;34.93;;;;;;;0.89;90.55;100044.90;1727761;82;21011;-74
2022/11/24 06:15:21;;;;;;;61.30;34.83;;;;;;;0.94;91.06;100051.31;1724067;82;21132;-74
2022/11/24 06:17:55;;;;;;;67.27;36.63;;;;;;;1.01;91.11;100055.60;1720602;82;21553;-75
2022/11/24 06:20:23;;;;;;;63.60;34.10;;;;;;;0.97;90.59;100050.02;1731616;82;21079;-75
2022/11/24 06:22:50;;;;;;;70.23;35.80;;;;;;;0.89;90.57;100060.38;1720938;82;21452;-75
2022/11/24 06:25:17;;;;;;;71.10;37.00;;;;;;;0.87;90.58;100062.95;1719931;82;21079;-74
2022/11/24 06:27:44;;;;;;;65.60;34.80;;;;;;;0.86;90.72;100056.09;1721669;82;21553;-75
2022/11/24 06:30:13;;;;;;;63.20;35.93;;;;;;;0.85;90.73;100055.64;1732066;82;21370;-75
2022/11/24 06:32:43;;;;;;;65.03;34.80;;;;;;;0.91;91.41;100065.08;1723647;82;21016;-75
2022/11/24 06:35:11;;;;;;;57.80;33.03;;;;;;;1.02;91.79;100062.47;1727964;81;21020;-74
2022/11/24 06:37:39;;;;;;;65.10;35.27;;;;;;;1.11;91.75;100067.63;1720848;82;21019;-74
2022/11/24 06:40:08;;;;;;;61.57;35.13;;;;;;;1.18;91.79;100072.31;1729968;82;21382;-75
2022/11/24 06:42:36;;;;;;;62.17;34.33;;;;;;;1.20;91.41;100067.57;1721197;81;21062;-74
2022/11/24 06:45:04;;;;;;;71.07;36.20;;;;;;;1.23;91.49;100070.58;1720626;81;21034;-75
2022/11/24 06:47:31;;;;;;;69.97;37.50;;;;;;;1.23;91.24;100075.73;1721520;81;21082;-75
2022/11/24 06:49:58;;;;;;;64.40;35.73;;;;;;;1.23;91.38;100069.28;1725780;81;21639;-74
2022/11/24 06:52:25;;;;;;;60.90;35.23;;;;;;;1.28;91.63;100071.42;1722826;82;21144;-75
2022/11/24 06:54:53;;;;;;;60.40;34.00;;;;;;;1.29;91.14;100077.00;1720528;82;20932;-75
2022/11/24 06:57:20;;;;;;;63.30;35.77;;;;;;;1.23;91.15;100071.42;1728213;82;21011;-75
2022/11/24 06:59:47;;;;;;;63.67;34.90;;;;;;;1.23;91.09;100077.03;1722266;81;21028;-75
2022/11/24 07:02:14;;;;;;;62.60;35.10;;;;;;;1.23;91.27;100079.17;1754292;81;21050;-75
2022/11/24 07:04:41;;;;;;;67.33;37.23;;;;;;;1.27;91.40;100080.01;1732624;82;21526;-75
2022/11/24 07:07:08;;;;;;;67.40;35.47;;;;;;;1.29;91.29;100086.88;1730484;82;21305;-82
2022/11/24 07:09:35;;;;;;;66.00;35.60;;;;;;;1.26;91.32;100088.19;1737992;82;21019;-84
2022/11/24 07:12:03;;;;;;;59.47;33.87;;;;;;;1.27;91.17;100088.61;1728792;81;21023;-79
2022/11/24 07:14:31;;;;;;;66.13;37.47;;;;;;;1.23;91.07;100097.69;1732737;82;21269;-75
2022/11/24 07:16:58;;;;;;;69.43;37.80;;;;;;;1.19;90.85;100094.67;1738617;81;21541;-76
2022/11/24 07:19:25;;;;;;;63.50;35.03;;;;;;;1.17;90.98;100099.86;1727242;81;20939;-82
2022/11/24 07:21:52;;;;;;;66.93;35.33;;;;;;;1.18;91.19;100101.56;1731146;82;21039;-78
2022/11/24 07:24:19;;;;;;;62.40;35.07;;;;;;;1.11;90.64;100107.63;1726664;81;21039;-83
2022/11/24 07:26:46;;;;;;;65.07;35.60;;;;;;;1.04;90.81;100108.50;1726965;82;21018;-76
2022/11/24 07:29:13;;;;;;;69.43;38.00;;;;;;;1.02;91.08;100108.92;1731432;82;21095;-76
2022/11/24 07:31:41;;;;;;;63.53;36.40;;;;;;;1.05;91.23;100112.78;1731094;82;21031;-77
2022/11/24 07:34:08;;;;;;;76.90;39.40;;;;;;;1.01;90.86;100116.25;1728248;81;20908;-76
2022/11/24 07:36:35;;;;;;;70.03;37.57;;;;;;;0.96;90.84;100123.99;1730712;81;21031;-77
2022/11/24 07:39:04;;;;;;;67.07;35.77;;;;;;;0.99;91.46;100117.53;1733939;82;21051;-74
2022/11/24 07:41:31;;;;;;;75.10;40.13;;;;;;;1.06;91.64;100126.14;1733507;82;21565;-77
2022/11/24 07:43:58;;;;;;;66.07;38.37;;;;;;;1.11;91.65;100129.13;1734466;81;21026;-76
2022/11/24 07:46:26;;;;;;;68.57;38.03;;;;;;;1.11;91.34;100125.26;1736578;82;21433;-74
2022/11/24 07:48:53;;;;;;;89.07;48.10;;;;;;;1.15;91.54;100128.69;1734802;82;21011;-76
2022/11/24 07:51:20;;;;;;;120.17;64.40;;;;;;;1.22;91.74;100129.10;1738152;81;21038;-75
2022/11/24 07:53:47;;;;;;;89.03;45.57;;;;;;;1.30;91.87;100130.34;1734908;82;21916;-75
2022/11/24 07:56:14;;;;;;;72.00;39.73;;;;;;;1.39;91.94;100129.03;1731467;82;21043;-83
2022/11/24 07:58:41;;;;;;;65.90;36.97;;;;;;;1.45;91.75;100138.48;1738840;81;21027;-74
2022/11/24 08:01:14;;;;;;;64.30;37.63;;;;;;;1.53;91.99;100129.83;1738048;81;20992;-78
2022/11/24 08:03:42;;;;;;;66.37;36.40;;;;;;;1.55;91.18;100129.81;1724099;82;21063;-78
2022/11/24 08:06:10;;;;;;;74.03;39.27;;;;;;;1.60;91.52;100131.94;1738063;81;21094;-77
2022/11/24 08:08:37;;;;;;;74.93;39.07;;;;;;;1.66;91.44;100135.78;1724785;82;21086;-77
2022/11/24 08:11:11;;;;;;;62.83;37.07;;;;;;;1.71;91.16;100138.35;1723027;82;21552;-78
2022/11/24 08:13:39;;;;;;;62.67;35.30;;;;;;;1.74;91.16;100135.75;1722879;82;21086;-79
2022/11/24 08:16:12;;;;;;;62.87;34.50;;;;;;;1.72;90.78;100134.92;1722662;82;21067;-76
2022/11/24 08:18:40;;;;;;;65.80;35.13;;;;;;;1.70;90.55;100141.38;1722463;82;21085;-78
2022/11/24 08:21:11;;;;;;;57.50;34.67;;;;;;;1.63;90.28;100132.36;1723909;82;21020;-76
2022/11/24 08:23:39;;;;;;;64.63;35.03;;;;;;;1.55;90.22;100141.43;1724494;82;21016;-76
2022/11/24 08:26:09;;;;;;;64.80;35.83;;;;;;;1.50;90.27;100140.62;1724848;82;21554;-77
2022/11/24 08:28:37;;;;;;;63.90;33.60;;;;;;;1.46;90.47;100145.35;1723983;83;21543;-81
2022/11/24 08:31:08;;;;;;;64.03;35.23;;;;;;;1.47;90.81;100147.95;1720998;82;21104;-78
2022/11/24 08:33:36;;;;;;;66.43;36.50;;;;;;;1.52;91.26;100149.20;1725260;82;21027;-79
2022/11/24 08:36:06;;;;;;;77.97;40.67;;;;;;;1.58;91.20;100149.60;1720845;81;21015;-79
2022/11/24 08:38:34;;;;;;;70.35;37.90;;;;;;;1.66;91.45;100153.86;1727706;82;21023;-79
2022/11/24 08:41:09;;;;;;;70.50;38.00;;;;;;;1.72;91.24;100155.59;1723280;82;21039;-78
2022/11/24 08:43:37;;;;;;;120.33;57.20;;;;;;;1.81;91.72;100156.83;1728494;82;21130;-79
2022/11/24 08:46:07;;;;;;;88.77;42.77;;;;;;;1.95;91.90;100159.34;1719105;82;21035;-83
2022/11/24 08:48:35;;;;;;;77.97;39.48;;;;;;;2.01;91.44;100154.97;1720483;82;21083;-77
2022/11/24 08:51:11;;;;;;;68.73;35.73;;;;;;;2.10;91.56;100150.61;1722424;82;20928;-77
2022/11/24 08:53:40;;;;;;;60.37;34.87;;;;;;;2.15;91.38;100155.33;1719320;82;21392;-77
2022/11/24 08:56:08;;;;;;;59.53;33.60;;;;;;;2.23;91.26;100149.23;1718616;82;21986;-77
2022/11/24 08:58:36;;;;;;;63.43;35.30;;;;;;;2.32;91.41;100146.16;1727906;80;21441;-77
2022/11/24 09:01:12;;;;;;;59.93;35.47;;;;;;;2.36;90.85;100148.72;1749904;81;21063;-79
2022/11/24 09:03:41;;;;;;;67.07;36.73;;;;;;;2.39;91.06;100150.42;1729167;82;21015;-77
2022/11/24 09:06:09;;;;;;;60.20;34.03;;;;;;;2.50;90.99;100148.61;1726045;82;21023;-82
2022/11/24 09:08:37;;;;;;;70.83;38.00;;;;;;;2.48;90.47;100153.38;1729046;82;22013;-83
2022/11/24 09:11:13;;;;;;;64.17;37.70;;;;;;;2.51;90.71;100152.05;1729235;81;21026;-79
2022/11/24 09:13:40;;;;;;;62.50;36.33;;;;;;;2.57;90.96;100146.81;1740423;81;21004;-83
2022/11/24 09:16:11;;;;;;;65.00;35.40;;;;;;;2.63;90.83;100151.52;1734218;82;21393;-76
2022/11/24 09:18:39;;;;;;;62.23;35.20;;;;;;;2.62;90.50;100155.41;1725187;82;21043;-84
2022/11/24 09:21:09;;;;;;;59.17;33.67;;;;;;;2.64;90.52;100154.52;1727086;82;21073;-78
2022/11/24 09:23:37;;;;;;;63.23;35.50;;;;;;;2.63;90.37;100154.52;1743907;81;21070;-81
2022/11/24 09:26:14;;;;;;;62.53;36.50;;;;;;;2.66;90.35;100157.97;1738114;81;21031;-80
2022/11/24 09:28:42;;;;;;;64.43;35.67;;;;;;;2.70;90.51;100152.76;1757769;81;21992;-79
2022/11/24 09:31:12;;;;;;;62.37;36.93;;;;;;;2.69;90.17;100160.96;1752145;81;21105;-78
2022/11/24 09:33:40;;;;;;;67.75;39.20;;;;;;;2.66;90.27;100160.55;1747011;81;21526;-78
2022/11/24 09:36:08;;;;;;;65.80;37.73;;;;;;;2.69;90.32;100162.26;1732088;82;21023;-85
2022/11/24 09:38:35;;;;;;;75.97;41.83;;;;;;;2.65;90.04;100165.28;1731027;82;21023;-86
2022/11/24 09:41:55;;;;;;;75.77;39.87;;;;;;;2.66;90.22;100164.44;1726268;81;21513;-78
2022/11/24 09:44:36;;;;;;;71.80;39.63;;;;;;;2.71;90.55;100164.38;1714369;82;21008;-78
2022/11/24 09:47:30;;;;;;;62.60;35.83;;;;;;;2.80;90.69;100163.02;1706760;82;22076;-78
2022/11/24 09:50:16;;;;;;;60.87;35.73;;;;;;;2.83;90.48;100163.42;1708954;82;21055;-78
2022/11/24 09:53:29;;;;;;;62.00;35.47;;;;;;;2.86;90.49;100171.16;1728725;82;21065;-78
2022/11/24 09:56:00;;;;;;;68.47;38.30;;;;;;;2.84;90.32;100171.16;1743391;81;21472;-78
2022/11/24 09:58:50;;;;;;;63.53;37.00;;;;;;;2.82;90.23;100163.84;1763715;80;21229;-78
2022/11/24 10:01:22;;;;;;;83.15;46.08;;;;;;;2.81;90.25;100168.60;1701750;82;22042;-82
2022/11/24 10:03:51;;;;;;;90.13;48.83;;;;;;;2.83;90.67;100163.42;1721596;82;21043;-78
2022/11/24 10:06:24;;;;;;;82.07;45.83;;;;;;;2.85;90.20;100170.72;1708793;82;21523;-81
2022/11/24 10:09:07;;;;;;;84.63;42.70;;;;;;;2.84;90.52;100172.89;1716105;82;21018;-80
2022/11/24 10:11:52;;;;;;;89.23;45.47;;;;;;;2.89;90.47;100177.16;1707448;82;21031;-79
2022/11/24 10:14:42;;;;;;;77.50;41.83;;;;;;;2.90;90.40;100178.02;1715432;82;21875;-79
2022/11/24 10:17:15;;;;;;;;;;;;;;;2.99;90.73;100186.13;1715276;82;21536;-78
2022/11/24 10:20:10;;;;;;;79.57;42.83;;;;;;;3.00;90.46;100183.98;1739799;81;20340;-76
2022/11/24 10:23:26;;;;;;;80.00;42.53;;;;;;;2.94;90.27;100181.42;1731643;82;21015;-79
2022/11/24 10:26:00;;;;;;;87.93;43.97;;;;;;;2.98;90.66;100177.95;1734097;82;21034;-77
2022/11/24 10:28:44;;;;;;;85.60;48.30;;;;;;;2.97;90.47;100171.06;1729501;82;21123;-77
2022/11/24 10:31:25;;;;;;;87.67;47.70;;;;;;;3.01;90.40;100174.88;1761198;81;21053;-76
2022/11/24 10:33:52;;;;;;;83.00;45.53;;;;;;;2.95;90.11;100179.27;1726591;82;21018;-77
2022/11/24 10:37:02;;;;;;;71.00;40.13;;;;;;;2.92;90.20;100178.86;1726908;82;21030;-78
2022/11/24 10:39:46;;;;;;;91.15;45.40;;;;;;;2.92;90.16;100178.86;1719618;82;21023;-74
2022/11/24 10:42:24;;;;;;;84.87;44.37;;;;;;;2.93;90.10;100181.02;1706727;82;21576;-74
2022/11/24 10:45:11;;;;;;;71.03;41.03;;;;;;;2.90;90.03;100176.27;1708070;82;20978;-74
2022/11/24 10:47:39;;;;;;;73.23;41.20;;;;;;;2.86;89.98;100175.89;1732979;81;21053;-77
2022/11/24 10:50:21;;;;;;;84.50;46.37;;;;;;;2.85;90.02;100176.75;1728898;81;21078;-77
2022/11/24 10:52:56;;;;;;;67.90;38.53;;;;;;;2.88;90.25;100176.75;1735174;82;21082;-79
2022/11/24 10:55:23;;;;;;;68.57;37.57;;;;;;;2.91;90.41;100173.27;1718750;82;21019;-77
2022/11/24 10:57:50;;;;;;;77.63;44.70;;;;;;;2.98;90.77;100171.03;1725244;82;21478;-78
2022/11/24 11:00:25;;;;;;;73.63;42.57;;;;;;;3.08;90.77;100163.60;1729587;82;21066;-77
2022/11/24 11:03:12;;;;;;;74.73;42.10;;;;;;;3.09;90.37;100168.34;1738785;81;21071;-76
2022/11/24 11:05:42;;;;;;;81.07;41.77;;;;;;;3.10;90.34;100166.16;1736026;82;21318;-76
2022/11/24 11:08:22;;;;;;;80.22;43.17;;;;;;;3.07;90.39;100173.96;1734219;82;21215;-77
2022/11/24 11:10:53;;;;;;;73.42;41.37;;;;;;;3.09;90.38;100177.41;1729690;82;21039;-77
2022/11/24 11:13:29;;;;;;;72.57;40.00;;;;;;;3.17;90.72;100183.36;1718698;82;21477;-82
2022/11/24 11:15:58;;;;;;;66.83;39.07;;;;;;;3.25;90.92;100180.26;1731225;82;21032;-76
2022/11/24 11:18:32;;;;;;;78.23;43.17;;;;;;;3.30;90.86;100184.11;1736709;82;21421;-77
2022/11/24 11:21:01;;;;;;;68.83;39.67;;;;;;;3.39;91.05;100187.88;1757562;81;21124;-77
2022/11/24 11:23:33;;;;;;;78.77;39.03;;;;;;;3.41;90.41;100173.59;1757995;81;21035;-78
2022/11/24 11:26:26;;;;;;;66.80;38.03;;;;;;;3.37;90.40;100183.14;1754033;81;21010;-78
2022/11/24 11:29:00;;;;;;;67.73;39.17;;;;;;;3.42;90.53;100177.92;1723649;82;21015;-77
2022/11/24 11:31:28;;;;;;;71.50;39.90;;;;;;;3.48;90.40;100178.70;1727120;83;21034;-78
2022/11/24 11:34:12;;;;;;;68.43;39.10;;;;;;;3.46;89.76;100186.92;1726468;83;21064;-76
2022/11/24 11:36:50;;;;;;;74.13;41.13;;;;;;;3.33;89.25;100182.77;1730336;82;20947;-79
2022/11/24 11:39:32;;;;;;;74.63;42.67;;;;;;;3.30;89.57;100177.19;1735517;82;21069;-78
2022/11/24 11:42:34;;;;;;;80.53;42.73;;;;;;;3.35;89.83;100177.11;1715962;82;21440;-79